Terminal Aerodrome Forecast
Issued by NWS

Home | Current Version | Previous Version | Graphics & Text | Print | Product List | Glossary On
Versions: 1 2 3 4 5 6 7 8 9 10 11 12 13 14 15 16 17 18 19 20
000
FTUS43 KTOP 030700 AAA
TAFFOE
TAF AMD
KFOE 030742Z 0308/0406 19012KT P6SM VCTS SCT050CB WS020/19030KT
     FM031100 19011KT P6SM SCT150
     FM031400 19017G24KT P6SM FEW150
     FM040100 17012KT P6SM SCT120=

USA.gov is the U.S. government's official web portal to all federal, state and local government web resources and services.